Aviation Digital Data Service (ADDS)

Output produced by METARs form (0138 UTC 19 November 2018)
found at http://www.aviationweather.gov/metar/data/
 
METAR text: RJOE 190110Z 30007KT 9999 -RA FEW015 BKN050 BKN080 14/09 Q1016 RMK 1CU015 5SC050 5AC080 A3002
Conditions at: RJOE (AKENO (JASDF) , JP) observed 0110 UTC 19 November 2018
Temperature: 14.0°C (57°F)
Dewpoint: 9.0°C (48°F) [RH = 72%]
Pressure (altimeter): 30.00 inches Hg (1016.0 mb)
Winds: from the WNW (300 degrees) at 8 MPH (7 knots; 3.6 m/s)
Visibility: 6 or more miles (10+ km)
Ceiling: 5000 feet AGL
Clouds: few clouds at 1500 feet AGL
broken clouds at 5000 feet AGL
broken clouds at 8000 feet AGL
Weather: -RA  (light rain)